createdAt,value
2023-04-28T00:00:52.616Z,26.79
2023-04-28T00:01:52.677Z,26.79
2023-04-28T00:02:52.751Z,26.80
2023-04-28T00:03:52.762Z,26.80
2023-04-28T00:04:52.900Z,26.78
2023-04-28T00:05:52.792Z,26.79
2023-04-28T00:06:52.716Z,26.78
2023-04-28T00:07:52.733Z,26.79
2023-04-28T00:08:52.745Z,26.76
2023-04-28T00:09:52.741Z,26.79
2023-04-28T00:10:52.764Z,26.79
2023-04-28T00:11:52.814Z,26.79
2023-04-28T00:12:52.833Z,26.78
2023-04-28T00:13:52.880Z,26.78
2023-04-28T00:14:52.862Z,26.78
2023-04-28T00:15:52.947Z,26.82
2023-04-28T00:16:52.981Z,26.76
2023-04-28T00:17:52.967Z,26.78
2023-04-28T00:18:52.953Z,26.75
2023-04-28T00:19:52.954Z,26.80
2023-04-28T00:20:52.943Z,26.76
2023-04-28T00:21:53.009Z,26.78
2023-04-28T00:22:53.001Z,26.80
2023-04-28T00:23:53.030Z,26.75
2023-04-28T00:24:53.056Z,26.78
2023-04-28T00:25:53.050Z,26.78
2023-04-28T00:26:53.059Z,26.78
2023-04-28T00:27:53.083Z,26.76
2023-04-28T00:28:53.113Z,26.76
2023-04-28T00:29:53.112Z,26.76
2023-04-28T00:30:53.149Z,26.76
2023-04-28T00:31:53.216Z,26.78
2023-04-28T00:32:53.276Z,26.76
2023-04-28T00:33:53.215Z,26.76
2023-04-28T00:34:53.234Z,26.75
2023-04-28T00:35:53.249Z,26.73
2023-04-28T00:36:53.276Z,26.75
2023-04-28T00:37:53.318Z,26.75
2023-04-28T00:38:53.304Z,26.73
2023-04-28T00:39:53.313Z,26.75
2023-04-28T00:40:53.373Z,26.75
2023-04-28T00:41:53.353Z,26.75
2023-04-28T00:42:53.385Z,26.73
2023-04-28T00:43:53.418Z,26.73
2023-04-28T00:44:53.428Z,26.73
2023-04-28T00:45:53.505Z,26.76
2023-04-28T00:46:53.476Z,26.73
2023-04-28T00:47:53.572Z,26.73
2023-04-28T00:48:53.530Z,26.75
2023-04-28T00:49:53.563Z,26.75
2023-04-28T00:50:53.579Z,26.73
2023-04-28T00:51:53.576Z,26.72
2023-04-28T00:52:53.613Z,26.73
2023-04-28T00:53:53.620Z,26.72
2023-04-28T00:54:53.639Z,26.72
2023-04-28T00:55:53.620Z,26.73
2023-04-28T00:56:53.691Z,26.72
2023-04-28T00:57:53.707Z,26.73
2023-04-28T00:58:53.724Z,26.72
2023-04-28T00:59:53.760Z,26.72
2023-04-28T01:00:53.780Z,26.72
2023-04-28T01:01:53.792Z,26.72
2023-04-28T01:02:53.890Z,26.70
2023-04-28T01:03:53.936Z,26.70
2023-04-28T01:04:53.826Z,26.70
2023-04-28T01:05:53.843Z,26.72
2023-04-28T01:06:53.859Z,26.75
2023-04-28T01:07:53.873Z,26.70
2023-04-28T01:08:53.851Z,26.70
2023-04-28T01:09:53.903Z,26.70
2023-04-28T01:10:53.887Z,26.70
2023-04-28T01:11:53.873Z,26.70
2023-04-28T01:12:53.903Z,26.73
2023-04-28T01:13:53.911Z,26.70
2023-04-28T01:14:53.930Z,26.70
2023-04-28T01:15:53.901Z,26.72
2023-04-28T01:16:53.931Z,26.69
2023-04-28T01:17:53.948Z,26.69
2023-04-28T01:18:53.934Z,26.70
2023-04-28T01:19:53.931Z,26.73
2023-04-28T01:20:53.978Z,26.69
2023-04-28T01:21:53.962Z,26.72
2023-04-28T01:22:54.017Z,26.72
2023-04-28T01:23:54.015Z,26.68
2023-04-28T01:24:54.082Z,26.70
2023-04-28T01:25:54.075Z,26.70
2023-04-28T01:26:54.087Z,26.69
2023-04-28T01:27:54.121Z,26.70
2023-04-28T01:28:54.154Z,26.70
2023-04-28T01:29:54.154Z,26.69
2023-04-28T01:30:54.209Z,26.69
2023-04-28T01:31:54.240Z,26.70
2023-04-28T01:32:54.259Z,26.70
2023-04-28T01:33:54.273Z,26.68
2023-04-28T01:34:54.262Z,26.70
2023-04-28T01:35:54.309Z,26.68
2023-04-28T01:36:54.317Z,26.70
2023-04-28T01:37:54.352Z,26.68
2023-04-28T01:38:54.356Z,26.68
2023-04-28T01:39:54.448Z,26.68
2023-04-28T01:40:54.393Z,26.69
2023-04-28T01:41:54.463Z,26.70
2023-04-28T01:42:54.493Z,26.69
2023-04-28T01:43:54.512Z,26.64
2023-04-28T01:44:54.497Z,26.66
2023-04-28T01:45:54.589Z,26.69
2023-04-28T01:46:54.590Z,26.68
2023-04-28T01:47:54.649Z,26.66
2023-04-28T01:48:54.630Z,26.68
2023-04-28T01:49:54.636Z,26.66
2023-04-28T01:50:54.657Z,26.69
2023-04-28T01:51:54.688Z,26.68
2023-04-28T01:52:54.704Z,26.64
2023-04-28T01:53:54.769Z,26.68
2023-04-28T01:54:54.797Z,26.68
2023-04-28T01:55:54.812Z,26.66
2023-04-28T01:56:54.828Z,26.66
2023-04-28T01:57:54.868Z,26.68
2023-04-28T01:58:54.868Z,26.68
2023-04-28T01:59:54.892Z,26.66
2023-04-28T02:00:54.914Z,26.66
2023-04-28T02:01:55.049Z,26.63
2023-04-28T02:02:55.082Z,26.64
2023-04-28T02:03:55.372Z,26.66
2023-04-28T02:04:55.184Z,26.68
2023-04-28T02:05:55.065Z,26.63
2023-04-28T02:06:55.105Z,26.68
2023-04-28T02:07:55.119Z,26.66
2023-04-28T02:08:55.153Z,26.66
2023-04-28T02:09:55.169Z,26.66
2023-04-28T02:10:55.199Z,26.66
2023-04-28T02:11:55.222Z,26.66
2023-04-28T02:12:55.226Z,26.64
2023-04-28T02:13:55.274Z,26.66
2023-04-28T02:14:55.293Z,26.66
2023-04-28T02:15:55.306Z,26.66
2023-04-28T02:16:55.355Z,26.66
2023-04-28T02:17:55.410Z,26.64
2023-04-28T02:18:55.427Z,26.63
2023-04-28T02:19:55.451Z,26.63
2023-04-28T02:20:55.465Z,26.64
2023-04-28T02:21:55.466Z,26.66
2023-04-28T02:22:55.517Z,26.64
2023-04-28T02:23:55.566Z,26.63
2023-04-28T02:24:55.582Z,26.66
2023-04-28T02:25:55.606Z,26.66
2023-04-28T02:26:55.636Z,26.64
2023-04-28T02:27:55.662Z,26.64
2023-04-28T02:28:55.685Z,26.66
2023-04-28T02:29:55.704Z,26.64
2023-04-28T02:30:55.707Z,26.63
2023-04-28T02:31:55.775Z,26.66
2023-04-28T02:32:55.831Z,26.64
2023-04-28T02:33:56.031Z,26.64
2023-04-28T02:34:55.837Z,26.62
2023-04-28T02:35:55.873Z,26.64
2023-04-28T02:36:55.901Z,26.64
2023-04-28T02:37:55.926Z,26.63
2023-04-28T02:38:55.979Z,26.64
2023-04-28T02:39:55.981Z,26.62
2023-04-28T02:40:56.007Z,26.64
2023-04-28T02:41:56.040Z,26.64
2023-04-28T02:42:56.068Z,26.64
2023-04-28T02:43:56.097Z,26.64
2023-04-28T02:44:56.113Z,26.63
2023-04-28T02:45:56.139Z,26.66
2023-04-28T02:46:56.227Z,26.63
2023-04-28T02:47:56.195Z,26.63
2023-04-28T02:48:56.229Z,26.64
2023-04-28T02:49:56.279Z,26.64
2023-04-28T02:50:56.267Z,26.62
2023-04-28T02:51:56.318Z,26.63
2023-04-28T02:52:56.416Z,26.62
2023-04-28T02:53:56.364Z,26.62
2023-04-28T02:54:56.370Z,26.62
2023-04-28T02:55:56.413Z,26.62
2023-04-28T02:56:56.482Z,26.62
2023-04-28T02:57:56.480Z,26.60
2023-04-28T02:58:56.485Z,26.63
2023-04-28T02:59:56.478Z,26.60
2023-04-28T03:00:56.517Z,26.62
2023-04-28T03:01:56.529Z,26.62
2023-04-28T03:02:56.617Z,26.60
2023-04-28T03:03:56.659Z,26.62
2023-04-28T03:04:56.624Z,26.62
2023-04-28T03:05:56.496Z,26.62
2023-04-28T03:06:56.514Z,26.60
2023-04-28T03:07:56.527Z,26.62
2023-04-28T03:08:56.515Z,26.60
2023-04-28T03:09:56.522Z,26.62
2023-04-28T03:10:56.579Z,26.60
2023-04-28T03:11:56.546Z,26.62
2023-04-28T03:12:56.561Z,26.62
2023-04-28T03:13:56.542Z,26.59
2023-04-28T03:14:56.572Z,26.60
2023-04-28T03:15:56.576Z,26.64
2023-04-28T03:16:56.567Z,26.62
2023-04-28T03:17:56.623Z,26.63
2023-04-28T03:18:56.590Z,26.62
2023-04-28T03:19:56.599Z,26.60
2023-04-28T03:20:56.575Z,26.63
2023-04-28T03:21:56.617Z,26.60
2023-04-28T03:22:56.626Z,26.62
2023-04-28T03:23:56.591Z,26.62
2023-04-28T03:24:56.609Z,26.62
2023-04-28T03:25:56.628Z,26.60
2023-04-28T03:26:56.637Z,26.63
2023-04-28T03:27:56.702Z,26.62
2023-04-28T03:28:56.709Z,26.62
2023-04-28T03:29:56.729Z,26.62
2023-04-28T03:30:56.757Z,26.63
2023-04-28T03:31:56.858Z,26.62
2023-04-28T03:32:56.842Z,26.66
2023-04-28T03:33:56.823Z,26.64
2023-04-28T03:34:56.861Z,26.66
2023-04-28T03:35:56.876Z,26.64
2023-04-28T03:36:56.890Z,26.68
2023-04-28T03:37:56.911Z,26.69
2023-04-28T03:38:56.953Z,26.69
2023-04-28T03:39:56.948Z,26.73
2023-04-28T03:40:56.930Z,26.72
2023-04-28T03:41:56.971Z,26.75
2023-04-28T03:42:57.010Z,26.78
2023-04-28T03:43:56.962Z,26.79
2023-04-28T03:44:57.007Z,26.79
2023-04-28T03:45:57.003Z,26.85
2023-04-28T03:46:57.014Z,26.85
2023-04-28T03:47:56.998Z,26.89
2023-04-28T03:48:56.989Z,26.90
2023-04-28T03:49:57.052Z,26.91
2023-04-28T03:50:57.034Z,26.93
2023-04-28T03:51:57.100Z,26.97
2023-04-28T03:52:57.158Z,26.99
2023-04-28T03:53:57.189Z,27.01
2023-04-28T03:54:57.258Z,27.00
2023-04-28T03:55:57.327Z,27.06
2023-04-28T03:56:57.375Z,27.09
2023-04-28T03:57:58.344Z,27.10
2023-04-28T03:58:57.503Z,27.13
2023-04-28T03:59:57.580Z,27.15
2023-04-28T04:00:57.616Z,27.17
2023-04-28T04:01:57.688Z,27.14
2023-04-28T04:02:58.028Z,27.18
2023-04-28T04:03:57.982Z,27.18
2023-04-28T04:04:58.187Z,27.23
2023-04-28T04:05:57.904Z,27.23
2023-04-28T04:06:57.945Z,27.23
2023-04-28T04:07:58.005Z,27.27
2023-04-28T04:08:58.037Z,27.27
2023-04-28T04:09:58.078Z,27.30
2023-04-28T04:10:58.121Z,27.29
2023-04-28T04:11:58.179Z,27.30
2023-04-28T04:12:58.210Z,27.31
2023-04-28T04:13:58.255Z,27.33
2023-04-28T04:14:58.307Z,27.34
2023-04-28T04:15:58.398Z,27.34
2023-04-28T04:16:58.363Z,27.36
2023-04-28T04:17:58.488Z,27.36
2023-04-28T04:18:58.462Z,27.38
2023-04-28T04:19:58.501Z,27.38
2023-04-28T04:20:58.529Z,27.41
2023-04-28T04:21:58.557Z,27.40
2023-04-28T04:22:58.595Z,27.40
2023-04-28T04:23:58.644Z,27.44
2023-04-28T04:24:58.643Z,27.43
2023-04-28T04:25:58.699Z,27.45
2023-04-28T04:26:58.697Z,27.44
2023-04-28T04:27:58.758Z,27.45
2023-04-28T04:28:58.790Z,27.47
2023-04-28T04:29:58.783Z,27.47
2023-04-28T04:30:58.893Z,27.45
2023-04-28T04:31:58.884Z,27.50
2023-04-28T04:32:58.907Z,27.50
2023-04-28T04:33:58.921Z,27.48
2023-04-28T04:34:58.978Z,27.48
2023-04-28T04:35:59.004Z,27.51
2023-04-28T04:36:59.014Z,27.51
2023-04-28T04:37:59.062Z,27.51
2023-04-28T04:38:59.109Z,27.54
2023-04-28T04:39:59.157Z,27.51
2023-04-28T04:40:59.186Z,27.51
2023-04-28T04:41:59.325Z,27.54
2023-04-28T04:42:59.269Z,27.55
2023-04-28T04:43:59.287Z,27.54
2023-04-28T04:44:59.297Z,27.55
2023-04-28T04:45:59.314Z,27.51
2023-04-28T04:46:59.385Z,27.55
2023-04-28T04:47:59.450Z,27.54
2023-04-28T04:48:59.426Z,27.54
2023-04-28T04:49:59.476Z,27.53
2023-04-28T04:50:59.479Z,27.54
2023-04-28T04:51:59.540Z,27.55
2023-04-28T04:52:59.585Z,27.55
2023-04-28T04:53:59.640Z,27.53
2023-04-28T04:54:59.649Z,27.54
2023-04-28T04:55:59.662Z,27.55
2023-04-28T04:56:59.715Z,27.54
2023-04-28T04:57:59.719Z,27.55
2023-04-28T04:58:59.778Z,27.54
2023-04-28T04:59:59.827Z,27.57
2023-04-28T05:01:06.859Z,27.57
2023-04-28T05:01:59.833Z,27.55
2023-04-28T05:02:59.887Z,27.55
2023-04-28T05:04:00.148Z,27.54
2023-04-28T05:05:12.411Z,27.55
2023-04-28T05:06:00.796Z,27.54
2023-04-28T05:06:59.799Z,27.54
2023-04-28T05:07:59.802Z,27.55
2023-04-28T05:08:59.798Z,27.57
2023-04-28T05:09:59.778Z,27.54
2023-04-28T05:10:59.770Z,27.57
2023-04-28T05:11:59.752Z,27.55
2023-04-28T05:12:59.781Z,27.57
2023-04-28T05:13:59.754Z,27.55
2023-04-28T05:14:59.741Z,27.55
2023-04-28T05:15:59.733Z,27.55
2023-04-28T05:16:59.815Z,27.55
2023-04-28T05:17:59.759Z,27.55
2023-04-28T05:18:59.727Z,27.57
2023-04-28T05:19:59.779Z,27.54
2023-04-28T05:20:59.799Z,27.55
2023-04-28T05:21:59.845Z,27.55
2023-04-28T05:22:59.845Z,27.54
2023-04-28T05:23:59.891Z,27.53
2023-04-28T05:24:59.932Z,27.54
2023-04-28T05:25:59.967Z,27.54
2023-04-28T05:26:59.985Z,27.54
2023-04-28T05:28:00.011Z,27.54
2023-04-28T05:29:00.015Z,27.53
2023-04-28T05:30:00.414Z,27.54
2023-04-28T05:31:00.128Z,27.54
2023-04-28T05:32:00.243Z,27.50
2023-04-28T05:33:00.365Z,27.45
2023-04-28T05:34:00.245Z,27.41
2023-04-28T05:35:00.420Z,27.20
2023-04-28T05:36:00.259Z,27.15
2023-04-28T05:37:00.303Z,27.09
2023-04-28T05:38:00.409Z,27.01
2023-04-28T05:39:00.389Z,26.93
2023-04-28T05:40:00.954Z,26.86
2023-04-28T05:41:00.485Z,26.83
2023-04-28T05:42:00.471Z,26.76
2023-04-28T05:43:00.520Z,26.66
2023-04-28T05:44:00.503Z,26.66
2023-04-28T05:45:00.524Z,26.62
2023-04-28T05:46:18.255Z,26.59
2023-04-28T05:47:01.808Z,26.58
2023-04-28T05:48:00.628Z,26.59
2023-04-28T05:49:00.561Z,26.62
2023-04-28T05:50:00.982Z,26.63
2023-04-28T05:51:00.517Z,26.70
2023-04-28T05:52:00.536Z,26.70
2023-04-28T05:53:00.530Z,26.75
2023-04-28T05:54:00.538Z,26.82
2023-04-28T05:55:00.512Z,26.87
2023-04-28T05:56:00.517Z,26.86
2023-04-28T05:57:01.639Z,26.94
2023-04-28T05:58:00.489Z,27.00
2023-04-28T05:59:00.496Z,27.03
2023-04-28T06:00:00.479Z,27.09
2023-04-28T06:01:00.473Z,27.13
2023-04-28T06:02:00.537Z,27.20
2023-04-28T06:03:00.576Z,27.27
2023-04-28T06:04:00.711Z,27.34
2023-04-28T06:05:00.634Z,27.38
2023-04-28T06:06:00.508Z,27.45
2023-04-28T06:07:00.429Z,27.51
2023-04-28T06:08:00.396Z,27.57
2023-04-28T06:09:00.382Z,27.62
2023-04-28T06:10:00.440Z,27.69
2023-04-28T06:11:00.382Z,27.74
2023-04-28T06:12:00.418Z,27.78
2023-04-28T06:13:00.371Z,27.85
2023-04-28T06:14:00.347Z,27.92
2023-04-28T06:15:00.388Z,27.95
2023-04-28T06:16:00.460Z,27.96
2023-04-28T06:17:00.342Z,28.01
2023-04-28T06:18:00.394Z,28.06
2023-04-28T06:19:00.323Z,28.13
2023-04-28T06:20:00.310Z,28.15
2023-04-28T06:21:00.469Z,28.18
2023-04-28T06:22:00.336Z,28.22
2023-04-28T06:23:00.360Z,28.23
2023-04-28T06:24:00.544Z,28.27
2023-04-28T06:25:00.499Z,28.27
2023-04-28T06:26:00.593Z,28.32
2023-04-28T06:27:00.596Z,28.35
2023-04-28T06:28:00.666Z,28.35
2023-04-28T06:29:00.722Z,28.40
2023-04-28T06:30:00.789Z,28.40
2023-04-28T06:31:00.877Z,28.45
2023-04-28T06:32:00.905Z,28.46
2023-04-28T06:33:00.946Z,28.46
2023-04-28T06:34:01.004Z,28.52
2023-04-28T06:35:01.055Z,28.53
2023-04-28T06:36:01.499Z,28.52
2023-04-28T06:37:01.150Z,28.50
2023-04-28T06:38:01.148Z,28.53
2023-04-28T06:39:01.227Z,28.55
2023-04-28T06:40:01.324Z,28.55
2023-04-28T06:41:01.481Z,28.50
2023-04-28T06:42:01.440Z,28.52
2023-04-28T06:43:01.472Z,28.52
2023-04-28T06:44:01.515Z,28.53
2023-04-28T06:45:01.613Z,28.52
2023-04-28T06:46:01.975Z,28.52
2023-04-28T06:47:01.866Z,28.53
2023-04-28T06:48:01.844Z,28.55
2023-04-28T06:49:01.822Z,28.53
2023-04-28T06:50:01.897Z,28.55
2023-04-28T06:51:01.959Z,28.57
2023-04-28T06:52:01.980Z,28.56
2023-04-28T06:53:02.080Z,28.57
2023-04-28T06:54:02.138Z,28.60
2023-04-28T06:55:02.187Z,28.60
2023-04-28T06:56:02.169Z,28.60
2023-04-28T06:57:02.278Z,28.64
2023-04-28T06:58:02.327Z,28.67
2023-04-28T06:59:02.352Z,28.66
2023-04-28T07:00:02.390Z,28.67
2023-04-28T07:01:02.510Z,28.69
2023-04-28T07:02:02.564Z,28.70
2023-04-28T07:03:02.634Z,28.71
2023-04-28T07:04:02.568Z,28.69
2023-04-28T07:05:02.515Z,28.67
2023-04-28T07:06:02.569Z,28.71
2023-04-28T07:07:02.573Z,28.71
2023-04-28T07:08:02.621Z,28.74
2023-04-28T07:09:02.660Z,28.76
2023-04-28T07:10:02.605Z,28.76
2023-04-28T07:11:02.625Z,28.77
2023-04-28T07:12:02.668Z,28.77
2023-04-28T07:13:02.671Z,28.77
2023-04-28T07:14:02.786Z,28.80
2023-04-28T07:15:02.801Z,28.80
2023-04-28T07:16:02.921Z,28.84
2023-04-28T07:17:02.874Z,28.86
2023-04-28T07:18:02.983Z,28.84
2023-04-28T07:19:02.878Z,28.84
2023-04-28T07:20:02.960Z,28.84
2023-04-28T07:21:05.404Z,28.84
2023-04-28T07:22:03.211Z,28.84
2023-04-28T07:23:03.449Z,28.86
2023-04-28T07:24:03.282Z,28.87
2023-04-28T07:25:03.305Z,28.89
2023-04-28T07:26:03.342Z,28.90
2023-04-28T07:27:03.338Z,28.89
2023-04-28T07:28:03.410Z,28.87
2023-04-28T07:29:03.458Z,28.89
2023-04-28T07:31:04.048Z,28.83
2023-04-28T07:32:04.719Z,28.67
2023-04-28T07:33:03.594Z,28.47
2023-04-28T07:34:03.563Z,28.30
2023-04-28T07:35:03.530Z,28.13
2023-04-28T07:36:03.492Z,28.02
2023-04-28T07:37:03.517Z,27.89
2023-04-28T07:38:03.623Z,27.84
2023-04-28T07:39:03.577Z,27.81
2023-04-28T07:40:03.482Z,27.74
2023-04-28T07:41:03.640Z,27.74
2023-04-28T07:42:03.761Z,27.71
2023-04-28T07:43:03.449Z,27.72
2023-04-28T07:44:03.465Z,27.75
2023-04-28T07:45:03.416Z,27.80
2023-04-28T07:46:03.473Z,27.84
2023-04-28T07:47:03.429Z,27.87
2023-04-28T07:48:03.443Z,27.92
2023-04-28T07:49:03.398Z,27.99
2023-04-28T07:50:03.405Z,28.04
2023-04-28T07:51:03.495Z,28.09
2023-04-28T07:52:03.416Z,28.13
2023-04-28T07:53:03.390Z,28.19
2023-04-28T07:54:03.351Z,28.22
2023-04-28T07:55:03.370Z,28.27
2023-04-28T07:56:03.462Z,28.30
2023-04-28T07:57:03.326Z,28.36
2023-04-28T07:58:03.350Z,28.36
2023-04-28T07:59:03.322Z,28.39
2023-04-28T08:00:03.420Z,28.39
2023-04-28T08:01:03.650Z,28.42
2023-04-28T08:02:03.357Z,28.42
2023-04-28T08:03:03.550Z,28.43
2023-04-28T08:04:03.497Z,28.43
2023-04-28T08:05:03.383Z,28.45
2023-04-28T08:06:03.427Z,28.45
2023-04-28T08:07:03.270Z,28.43
2023-04-28T08:08:03.312Z,28.39
2023-04-28T08:09:03.249Z,28.39
2023-04-28T08:10:03.258Z,28.38
2023-04-28T08:11:03.237Z,28.38
2023-04-28T08:12:04.516Z,28.39
2023-04-28T08:13:03.246Z,28.34
2023-04-28T08:14:03.481Z,28.35
2023-04-28T08:15:03.230Z,28.34
2023-04-28T08:16:03.222Z,28.35
2023-04-28T08:17:04.012Z,28.34
2023-04-28T08:18:03.258Z,28.34
2023-04-28T08:19:03.228Z,28.34
2023-04-28T08:20:03.217Z,28.32
2023-04-28T08:21:03.273Z,28.32
2023-04-28T08:22:03.163Z,28.34
2023-04-28T08:23:03.153Z,28.34
2023-04-28T08:24:03.161Z,28.34
2023-04-28T08:25:03.975Z,28.35
2023-04-28T08:26:03.160Z,28.35
2023-04-28T08:27:03.540Z,28.39
2023-04-28T08:28:03.109Z,28.38
2023-04-28T08:29:03.111Z,28.42
2023-04-28T08:30:03.124Z,28.38
2023-04-28T08:31:03.153Z,28.34
2023-04-28T08:32:03.518Z,28.34
2023-04-28T08:33:03.092Z,28.32
2023-04-28T08:34:03.088Z,28.25
2023-04-28T08:35:03.088Z,28.22
2023-04-28T08:36:03.048Z,28.19
2023-04-28T08:37:03.518Z,28.15
2023-04-28T08:38:03.113Z,28.12
2023-04-28T08:39:03.062Z,28.11
2023-04-28T08:40:03.061Z,28.09
2023-04-28T08:41:03.080Z,28.05
2023-04-28T08:42:03.098Z,28.05
2023-04-28T08:43:03.107Z,28.02
2023-04-28T08:44:03.038Z,28.05
2023-04-28T08:45:03.053Z,28.04
2023-04-28T08:46:03.007Z,28.02
2023-04-28T08:47:03.023Z,28.02
2023-04-28T08:48:03.038Z,28.02
2023-04-28T08:49:03.010Z,28.01
2023-04-28T08:50:02.966Z,27.98
2023-04-28T08:51:02.984Z,27.95
2023-04-28T08:52:03.044Z,27.94
2023-04-28T08:53:02.947Z,27.94
2023-04-28T08:55:02.962Z,27.92
2023-04-28T08:56:02.968Z,27.96
2023-04-28T08:57:03.666Z,27.94
2023-04-28T08:58:06.107Z,27.95
2023-04-28T08:59:03.142Z,27.95
2023-04-28T09:00:03.185Z,27.92
2023-04-28T09:01:03.176Z,27.94
2023-04-28T09:02:03.238Z,27.96
2023-04-28T09:03:03.286Z,27.96
2023-04-28T09:04:04.458Z,27.99
2023-04-28T09:05:03.485Z,27.99
2023-04-28T09:06:03.099Z,28.05
2023-04-28T09:07:03.125Z,28.11
2023-04-28T09:08:03.086Z,28.11
2023-04-28T09:09:03.158Z,28.15
2023-04-28T09:10:03.065Z,28.19
2023-04-28T09:11:03.056Z,28.25
2023-04-28T09:12:03.043Z,28.27
2023-04-28T09:13:03.067Z,28.35
2023-04-28T09:14:03.043Z,28.36
2023-04-28T09:15:03.014Z,28.42
2023-04-28T09:16:03.033Z,28.45
2023-04-28T09:17:03.070Z,28.47
2023-04-28T09:18:03.184Z,28.52
2023-04-28T09:19:04.018Z,28.56
2023-04-28T09:20:03.082Z,28.57
2023-04-28T09:21:03.123Z,28.62
2023-04-28T09:22:13.807Z,28.64
2023-04-28T09:23:04.207Z,28.66
2023-04-28T09:24:03.191Z,28.69
2023-04-28T09:25:03.191Z,28.70
2023-04-28T09:26:03.190Z,28.74
2023-04-28T09:27:03.175Z,28.77
2023-04-28T09:28:03.146Z,28.79
2023-04-28T09:29:03.117Z,28.77
2023-04-28T09:30:03.125Z,28.83
2023-04-28T09:31:03.126Z,28.84
2023-04-28T09:32:03.171Z,28.86
2023-04-28T09:33:03.201Z,28.89
2023-04-28T09:34:03.101Z,28.89
2023-04-28T09:35:03.097Z,28.91
2023-04-28T09:36:03.118Z,28.93
2023-04-28T09:37:03.102Z,28.90
2023-04-28T09:38:03.087Z,28.93
2023-04-28T09:39:03.162Z,28.94
2023-04-28T09:40:03.128Z,28.96
2023-04-28T09:41:03.195Z,29.01
2023-04-28T09:42:03.201Z,28.99
2023-04-28T09:43:15.066Z,28.99
2023-04-28T09:44:04.213Z,28.97
2023-04-28T09:45:03.180Z,28.96
2023-04-28T09:46:03.264Z,28.94
2023-04-28T09:47:03.184Z,28.91
2023-04-28T09:48:03.554Z,28.91
2023-04-28T09:49:03.195Z,28.90
2023-04-28T09:50:03.202Z,28.91
2023-04-28T09:51:03.273Z,28.94
2023-04-28T09:52:03.312Z,28.96
2023-04-28T09:53:03.329Z,28.96
2023-04-28T09:54:03.367Z,28.97
2023-04-28T09:55:03.442Z,28.99
2023-04-28T09:56:03.655Z,29.03
2023-04-28T09:57:03.799Z,29.04
2023-04-28T09:58:03.596Z,29.04
2023-04-28T09:59:03.533Z,29.07
2023-04-28T10:00:03.557Z,29.10
2023-04-28T10:01:03.619Z,29.09
2023-04-28T10:03:04.771Z,29.13
2023-04-28T10:04:03.618Z,29.14
2023-04-28T10:04:07.117Z,29.13
2023-04-28T10:05:03.790Z,29.17
2023-04-28T10:06:03.578Z,29.17
2023-04-28T10:07:03.528Z,29.21
2023-04-28T10:08:03.508Z,29.21
2023-04-28T10:09:03.571Z,29.20
2023-04-28T10:10:03.513Z,29.22
2023-04-28T10:11:03.498Z,29.22
2023-04-28T10:12:03.505Z,29.25
2023-04-28T10:13:03.493Z,29.24
2023-04-28T10:14:03.472Z,29.27
2023-04-28T10:15:03.501Z,29.25
2023-04-28T10:16:03.532Z,29.28
2023-04-28T10:17:03.495Z,29.30
2023-04-28T10:18:03.626Z,29.30
2023-04-28T10:19:03.560Z,29.32
2023-04-28T10:20:03.543Z,29.32
2023-04-28T10:21:03.613Z,29.34
2023-04-28T10:22:03.708Z,29.34
2023-04-28T10:23:04.102Z,29.38
2023-04-28T10:24:03.875Z,29.38
2023-04-28T10:25:03.955Z,29.38
2023-04-28T10:26:03.976Z,29.42
2023-04-28T10:27:03.968Z,29.42
2023-04-28T10:28:04.100Z,29.42
2023-04-28T10:29:03.941Z,29.42
2023-04-28T10:30:05.091Z,29.47
2023-04-28T10:31:03.984Z,29.44
2023-04-28T10:32:03.933Z,29.50
2023-04-28T10:33:04.241Z,29.50
2023-04-28T10:34:03.941Z,29.52
2023-04-28T10:35:03.965Z,29.51
2023-04-28T10:36:03.956Z,29.55
2023-04-28T10:37:03.897Z,29.52
2023-04-28T10:38:04.101Z,29.51
2023-04-28T10:39:03.914Z,29.47
2023-04-28T10:40:04.400Z,29.44
2023-04-28T10:41:03.890Z,29.38
2023-04-28T10:42:03.895Z,29.31
2023-04-28T10:43:03.914Z,29.25
2023-04-28T10:44:03.868Z,29.22
2023-04-28T10:45:03.830Z,29.14
2023-04-28T10:46:03.958Z,29.06
2023-04-28T10:47:03.911Z,29.01
2023-04-28T10:48:03.878Z,28.97
2023-04-28T10:49:03.830Z,28.93
2023-04-28T10:50:03.868Z,28.90
2023-04-28T10:51:03.921Z,28.86
2023-04-28T10:52:03.879Z,28.83
2023-04-28T10:53:03.926Z,28.77
2023-04-28T10:54:03.966Z,28.74
2023-04-28T10:55:15.748Z,28.74
2023-04-28T10:56:05.025Z,28.70
2023-04-28T10:57:04.069Z,28.71
2023-04-28T10:58:04.026Z,28.70
2023-04-28T10:59:04.005Z,28.67
2023-04-28T11:00:04.031Z,28.64
2023-04-28T11:01:03.951Z,28.63
2023-04-28T11:02:04.061Z,28.63
2023-04-28T11:03:04.224Z,28.62
2023-04-28T11:04:04.519Z,28.59
2023-04-28T11:05:04.197Z,28.57
2023-04-28T11:06:04.020Z,28.57
2023-04-28T11:07:04.062Z,28.56
2023-04-28T11:08:04.107Z,28.55
2023-04-28T11:09:04.141Z,28.53
2023-04-28T11:10:04.207Z,28.55
2023-04-28T11:11:04.257Z,28.53
2023-04-28T11:12:04.310Z,28.52
2023-04-28T11:13:04.333Z,28.52
2023-04-28T11:14:04.395Z,28.50
2023-04-28T11:15:04.464Z,28.50
2023-04-28T11:16:04.629Z,28.49
2023-04-28T11:17:04.538Z,28.49
2023-04-28T11:18:04.656Z,28.49
2023-04-28T11:19:04.675Z,28.49
2023-04-28T11:20:04.587Z,28.47
2023-04-28T11:21:04.621Z,28.46
2023-04-28T11:22:04.675Z,28.47
2023-04-28T11:23:04.681Z,28.43
2023-04-28T11:24:05.094Z,28.45
2023-04-28T11:25:04.723Z,28.45
2023-04-28T11:26:04.732Z,28.43
2023-04-28T11:27:04.776Z,28.42
2023-04-28T11:28:04.788Z,28.42
2023-04-28T11:29:05.135Z,28.40
2023-04-28T11:30:04.844Z,28.39
2023-04-28T11:31:04.835Z,28.40
2023-04-28T11:32:04.980Z,28.36
2023-04-28T11:33:04.917Z,28.39
2023-04-28T11:34:05.107Z,28.39
2023-04-28T11:35:05.051Z,28.38
2023-04-28T11:36:05.083Z,28.36
2023-04-28T11:37:04.863Z,28.38
2023-04-28T11:38:04.905Z,28.35
2023-04-28T11:39:04.927Z,28.35
2023-04-28T11:40:04.924Z,28.34
2023-04-28T11:41:04.969Z,28.36
2023-04-28T11:42:05.041Z,28.36
2023-04-28T11:43:04.944Z,28.32
2023-04-28T11:44:04.941Z,28.30
2023-04-28T11:45:04.997Z,28.30
2023-04-28T11:46:04.960Z,28.26
2023-04-28T11:47:05.290Z,28.27
2023-04-28T11:48:04.992Z,28.25
2023-04-28T11:49:04.971Z,28.25
2023-04-28T11:50:04.987Z,28.25
2023-04-28T11:51:04.990Z,28.19
2023-04-28T11:52:04.982Z,28.23
2023-04-28T11:53:05.064Z,28.20
2023-04-28T11:54:05.028Z,28.20
2023-04-28T11:55:04.947Z,28.19
2023-04-28T11:56:05.012Z,28.18
2023-04-28T11:57:05.012Z,28.20
2023-04-28T11:58:04.982Z,28.20
2023-04-28T11:59:05.014Z,28.20
2023-04-28T12:00:05.057Z,28.20
2023-04-28T12:01:05.021Z,28.19
2023-04-28T12:02:05.043Z,28.20
2023-04-28T12:03:05.087Z,28.18
2023-04-28T12:04:05.100Z,28.15
2023-04-28T12:05:05.014Z,28.13
2023-04-28T12:06:05.004Z,28.09
2023-04-28T12:07:05.051Z,28.05
2023-04-28T12:08:05.068Z,28.04
2023-04-28T12:09:05.070Z,28.01
2023-04-28T12:10:05.096Z,27.98
2023-04-28T12:11:05.039Z,27.96
2023-04-28T12:12:05.122Z,27.95
2023-04-28T12:13:05.042Z,27.92
2023-04-28T12:14:05.052Z,27.91
2023-04-28T12:15:05.091Z,27.89
2023-04-28T12:16:05.115Z,27.87
2023-04-28T12:17:05.084Z,27.85
2023-04-28T12:18:05.113Z,27.82
2023-04-28T12:19:05.108Z,27.82
2023-04-28T12:20:05.111Z,27.81
2023-04-28T12:21:05.195Z,27.81
2023-04-28T12:22:05.217Z,27.78
2023-04-28T12:23:05.136Z,27.80
2023-04-28T12:24:05.144Z,27.81
2023-04-28T12:25:05.233Z,27.82
2023-04-28T12:26:05.224Z,27.80
2023-04-28T12:27:05.218Z,27.81
2023-04-28T12:28:05.236Z,27.78
2023-04-28T12:29:05.268Z,27.82
2023-04-28T12:30:05.292Z,27.82
2023-04-28T12:31:05.314Z,27.84
2023-04-28T12:32:05.359Z,27.84
2023-04-28T12:33:05.435Z,27.85
2023-04-28T12:34:05.341Z,27.87
2023-04-28T12:35:05.343Z,27.87
2023-04-28T12:36:05.385Z,27.85
2023-04-28T12:37:05.416Z,27.88
2023-04-28T12:38:05.440Z,27.87
2023-04-28T12:39:05.480Z,27.88
2023-04-28T12:40:05.456Z,27.87
2023-04-28T12:41:05.477Z,27.88
2023-04-28T12:42:05.465Z,27.88
2023-04-28T12:43:05.487Z,27.89
2023-04-28T12:44:05.510Z,27.88
2023-04-28T12:45:05.471Z,27.88
2023-04-28T12:46:05.547Z,27.88
2023-04-28T12:47:05.502Z,27.88
2023-04-28T12:48:05.583Z,27.87
2023-04-28T12:49:05.515Z,27.88
2023-04-28T12:50:05.529Z,27.88
2023-04-28T12:51:05.527Z,27.85
2023-04-28T12:52:05.533Z,27.87
2023-04-28T12:53:05.538Z,27.88
2023-04-28T12:54:05.542Z,27.87
2023-04-28T12:55:05.579Z,27.85